Terminal Aerodrome Forecast
Issued by NWS Shreveport, LA

Home | Current Version | Previous Version | Text Only | Print | Product List | Glossary On
Versions: 1 2 3 4 5 6 7 8 9 10 11 12 13 14 15 16 17 18 19 20 21
000
FTUS44 KSHV 260904 AAA
TAFGGG
TAF AMD
KGGG 260904Z 2609/2706 18013KT P6SM SCT150 BKN280
     FM261000 19011KT P6SM OVC015
      TEMPO 2611/2613 19015G22KT BKN007
     FM261500 21015G25KT P6SM OVC020
     FM262000 19017G24KT P6SM BKN045
     FM270100 17012KT P6SM OVC050=

USA.gov is the U.S. government's official web portal to all federal, state and local government web resources and services.